sensor_id;sensor_type;location;lat;lon;timestamp;P1;durP1;ratioP1;P2;durP2;ratioP2
71558;SDS011;59382;43.852;25.952;2023-11-21T00:01:54;2.92;;;2.33;;
71558;SDS011;59382;43.852;25.952;2023-11-21T00:04:19;4.82;;;2.92;;
71558;SDS011;59382;43.852;25.952;2023-11-21T00:06:45;2.65;;;2.13;;
71558;SDS011;59382;43.852;25.952;2023-11-21T00:09:12;2.90;;;2.40;;
71558;SDS011;59382;43.852;25.952;2023-11-21T00:11:40;4.97;;;2.70;;
71558;SDS011;59382;43.852;25.952;2023-11-21T00:14:06;3.83;;;2.45;;
71558;SDS011;59382;43.852;25.952;2023-11-21T00:16:32;2.75;;;2.15;;
71558;SDS011;59382;43.852;25.952;2023-11-21T00:18:57;3.60;;;2.30;;
71558;SDS011;59382;43.852;25.952;2023-11-21T00:21:22;3.47;;;2.30;;
71558;SDS011;59382;43.852;25.952;2023-11-21T00:23:48;3.50;;;2.10;;
71558;SDS011;59382;43.852;25.952;2023-11-21T00:26:14;3.40;;;2.28;;
71558;SDS011;59382;43.852;25.952;2023-11-21T00:28:39;2.28;;;1.83;;
71558;SDS011;59382;43.852;25.952;2023-11-21T00:31:05;5.60;;;2.10;;
71558;SDS011;59382;43.852;25.952;2023-11-21T00:33:31;3.40;;;2.50;;
71558;SDS011;59382;43.852;25.952;2023-11-21T00:35:57;3.58;;;2.40;;
71558;SDS011;59382;43.852;25.952;2023-11-21T00:38:22;7.68;;;2.35;;
71558;SDS011;59382;43.852;25.952;2023-11-21T00:40:49;6.97;;;2.20;;
71558;SDS011;59382;43.852;25.952;2023-11-21T00:43:14;5.95;;;2.50;;
71558;SDS011;59382;43.852;25.952;2023-11-21T00:45:40;2.42;;;2.15;;
71558;SDS011;59382;43.852;25.952;2023-11-21T00:48:07;5.63;;;2.72;;
71558;SDS011;59382;43.852;25.952;2023-11-21T00:50:33;4.43;;;1.80;;
71558;SDS011;59382;43.852;25.952;2023-11-21T00:52:59;3.58;;;2.22;;
71558;SDS011;59382;43.852;25.952;2023-11-21T00:55:24;3.45;;;2.10;;
71558;SDS011;59382;43.852;25.952;2023-11-21T00:57:50;3.60;;;2.10;;
71558;SDS011;59382;43.852;25.952;2023-11-21T01:00:15;4.80;;;2.20;;
71558;SDS011;59382;43.852;25.952;2023-11-21T01:02:44;3.97;;;2.47;;
71558;SDS011;59382;43.852;25.952;2023-11-21T01:05:10;6.70;;;2.78;;
71558;SDS011;59382;43.852;25.952;2023-11-21T01:07:36;2.53;;;2.28;;
71558;SDS011;59382;43.852;25.952;2023-11-21T01:10:02;6.13;;;2.38;;
71558;SDS011;59382;43.852;25.952;2023-11-21T01:12:30;8.48;;;2.40;;
71558;SDS011;59382;43.852;25.952;2023-11-21T01:14:56;3.75;;;2.25;;
71558;SDS011;59382;43.852;25.952;2023-11-21T01:17:25;3.95;;;2.47;;
71558;SDS011;59382;43.852;25.952;2023-11-21T01:19:50;5.07;;;2.53;;
71558;SDS011;59382;43.852;25.952;2023-11-21T01:22:16;3.65;;;2.45;;
71558;SDS011;59382;43.852;25.952;2023-11-21T01:24:43;3.20;;;2.15;;
71558;SDS011;59382;43.852;25.952;2023-11-21T01:27:08;2.72;;;2.13;;
71558;SDS011;59382;43.852;25.952;2023-11-21T01:29:34;4.78;;;2.55;;
71558;SDS011;59382;43.852;25.952;2023-11-21T01:32:01;2.35;;;1.92;;
71558;SDS011;59382;43.852;25.952;2023-11-21T01:34:28;3.85;;;2.35;;
71558;SDS011;59382;43.852;25.952;2023-11-21T01:36:53;5.50;;;2.17;;
71558;SDS011;59382;43.852;25.952;2023-11-21T01:39:19;1.92;;;1.60;;
71558;SDS011;59382;43.852;25.952;2023-11-21T01:41:49;3.97;;;1.80;;
71558;SDS011;59382;43.852;25.952;2023-11-21T01:44:15;3.03;;;1.67;;
71558;SDS011;59382;43.852;25.952;2023-11-21T01:46:42;2.55;;;2.13;;
71558;SDS011;59382;43.852;25.952;2023-11-21T01:49:08;6.55;;;2.20;;
71558;SDS011;59382;43.852;25.952;2023-11-21T01:51:38;3.45;;;2.00;;
71558;SDS011;59382;43.852;25.952;2023-11-21T01:54:04;2.22;;;1.77;;
71558;SDS011;59382;43.852;25.952;2023-11-21T01:56:30;2.65;;;1.92;;
71558;SDS011;59382;43.852;25.952;2023-11-21T01:58:57;3.13;;;2.13;;
71558;SDS011;59382;43.852;25.952;2023-11-21T02:01:22;4.78;;;1.90;;
71558;SDS011;59382;43.852;25.952;2023-11-21T02:03:48;3.63;;;1.90;;
71558;SDS011;59382;43.852;25.952;2023-11-21T02:06:13;2.38;;;1.73;;
71558;SDS011;59382;43.852;25.952;2023-11-21T02:08:39;2.67;;;1.60;;
71558;SDS011;59382;43.852;25.952;2023-11-21T02:11:05;3.33;;;1.88;;
71558;SDS011;59382;43.852;25.952;2023-11-21T02:13:30;2.58;;;1.73;;
71558;SDS011;59382;43.852;25.952;2023-11-21T02:15:57;4.03;;;2.10;;
71558;SDS011;59382;43.852;25.952;2023-11-21T02:18:23;3.95;;;1.77;;
71558;SDS011;59382;43.852;25.952;2023-11-21T02:20:48;1.60;;;1.50;;
71558;SDS011;59382;43.852;25.952;2023-11-21T02:23:14;2.78;;;1.58;;
71558;SDS011;59382;43.852;25.952;2023-11-21T02:25:39;2.00;;;1.75;;
71558;SDS011;59382;43.852;25.952;2023-11-21T02:28:07;3.65;;;1.90;;
71558;SDS011;59382;43.852;25.952;2023-11-21T02:30:33;4.15;;;2.35;;
71558;SDS011;59382;43.852;25.952;2023-11-21T02:32:59;5.15;;;3.03;;
71558;SDS011;59382;43.852;25.952;2023-11-21T02:35:26;4.72;;;2.58;;
71558;SDS011;59382;43.852;25.952;2023-11-21T02:37:54;9.05;;;2.85;;
71558;SDS011;59382;43.852;25.952;2023-11-21T02:40:20;5.72;;;2.75;;
71558;SDS011;59382;43.852;25.952;2023-11-21T02:42:46;7.10;;;2.92;;
71558;SDS011;59382;43.852;25.952;2023-11-21T02:45:13;4.95;;;3.17;;
71558;SDS011;59382;43.852;25.952;2023-11-21T02:47:42;3.78;;;2.28;;
71558;SDS011;59382;43.852;25.952;2023-11-21T02:50:08;5.55;;;2.72;;
71558;SDS011;59382;43.852;25.952;2023-11-21T02:52:34;7.72;;;2.13;;
71558;SDS011;59382;43.852;25.952;2023-11-21T02:55:00;2.92;;;1.83;;
71558;SDS011;59382;43.852;25.952;2023-11-21T02:57:29;4.45;;;2.15;;
71558;SDS011;59382;43.852;25.952;2023-11-21T02:59:55;4.55;;;1.75;;
71558;SDS011;59382;43.852;25.952;2023-11-21T03:02:20;6.85;;;1.77;;
71558;SDS011;59382;43.852;25.952;2023-11-21T03:04:47;1.92;;;1.70;;
71558;SDS011;59382;43.852;25.952;2023-11-21T03:07:14;2.65;;;1.77;;
71558;SDS011;59382;43.852;25.952;2023-11-21T03:09:40;2.42;;;1.63;;
71558;SDS011;59382;43.852;25.952;2023-11-21T03:12:06;1.73;;;1.48;;
71558;SDS011;59382;43.852;25.952;2023-11-21T03:14:31;3.60;;;1.58;;
71558;SDS011;59382;43.852;25.952;2023-11-21T03:16:57;2.47;;;1.40;;
71558;SDS011;59382;43.852;25.952;2023-11-21T03:19:22;3.08;;;1.50;;
71558;SDS011;59382;43.852;25.952;2023-11-21T03:21:48;1.85;;;1.45;;
71558;SDS011;59382;43.852;25.952;2023-11-21T03:24:14;2.55;;;1.77;;
71558;SDS011;59382;43.852;25.952;2023-11-21T03:26:44;3.55;;;1.20;;
71558;SDS011;59382;43.852;25.952;2023-11-21T03:29:09;2.28;;;1.63;;
71558;SDS011;59382;43.852;25.952;2023-11-21T03:31:35;5.55;;;1.92;;
71558;SDS011;59382;43.852;25.952;2023-11-21T03:34:01;3.25;;;2.20;;
71558;SDS011;59382;43.852;25.952;2023-11-21T03:36:27;4.90;;;2.22;;
71558;SDS011;59382;43.852;25.952;2023-11-21T03:38:52;3.85;;;2.58;;
71558;SDS011;59382;43.852;25.952;2023-11-21T03:41:17;4.22;;;1.90;;
71558;SDS011;59382;43.852;25.952;2023-11-21T03:43:43;3.75;;;1.98;;
71558;SDS011;59382;43.852;25.952;2023-11-21T03:46:09;3.50;;;2.00;;
71558;SDS011;59382;43.852;25.952;2023-11-21T03:48:35;3.95;;;2.17;;
71558;SDS011;59382;43.852;25.952;2023-11-21T03:51:00;2.97;;;2.35;;
71558;SDS011;59382;43.852;25.952;2023-11-21T03:53:26;2.80;;;2.00;;
71558;SDS011;59382;43.852;25.952;2023-11-21T03:55:51;1.73;;;1.60;;
71558;SDS011;59382;43.852;25.952;2023-11-21T03:58:17;2.35;;;1.45;;
71558;SDS011;59382;43.852;25.952;2023-11-21T04:00:42;2.70;;;1.75;;
71558;SDS011;59382;43.852;25.952;2023-11-21T04:03:08;3.80;;;1.55;;
71558;SDS011;59382;43.852;25.952;2023-11-21T04:05:33;2.58;;;1.48;;
71558;SDS011;59382;43.852;25.952;2023-11-21T04:07:59;2.55;;;1.50;;
71558;SDS011;59382;43.852;25.952;2023-11-21T04:10:24;2.58;;;2.03;;
71558;SDS011;59382;43.852;25.952;2023-11-21T04:12:50;23.70;;;5.38;;
71558;SDS011;59382;43.852;25.952;2023-11-21T04:15:15;3.80;;;3.10;;
71558;SDS011;59382;43.852;25.952;2023-11-21T04:17:42;2.80;;;2.53;;
71558;SDS011;59382;43.852;25.952;2023-11-21T04:20:08;5.55;;;2.58;;
71558;SDS011;59382;43.852;25.952;2023-11-21T04:22:38;3.47;;;2.40;;
71558;SDS011;59382;43.852;25.952;2023-11-21T04:25:12;2.35;;;1.67;;
71558;SDS011;59382;43.852;25.952;2023-11-21T04:27:40;3.47;;;2.10;;
71558;SDS011;59382;43.852;25.952;2023-11-21T04:30:08;3.17;;;1.50;;
71558;SDS011;59382;43.852;25.952;2023-11-21T04:32:35;4.15;;;1.98;;
71558;SDS011;59382;43.852;25.952;2023-11-21T04:35:01;3.88;;;1.88;;
71558;SDS011;59382;43.852;25.952;2023-11-21T04:37:27;2.30;;;1.55;;
71558;SDS011;59382;43.852;25.952;2023-11-21T04:39:52;2.65;;;1.70;;
71558;SDS011;59382;43.852;25.952;2023-11-21T04:42:18;1.58;;;1.33;;
71558;SDS011;59382;43.852;25.952;2023-11-21T04:44:43;1.60;;;1.30;;
71558;SDS011;59382;43.852;25.952;2023-11-21T04:47:09;3.55;;;2.05;;
71558;SDS011;59382;43.852;25.952;2023-11-21T04:49:35;4.15;;;2.00;;
71558;SDS011;59382;43.852;25.952;2023-11-21T04:52:01;2.95;;;1.65;;
71558;SDS011;59382;43.852;25.952;2023-11-21T04:54:27;3.42;;;1.50;;
71558;SDS011;59382;43.852;25.952;2023-11-21T04:56:52;7.68;;;2.17;;
71558;SDS011;59382;43.852;25.952;2023-11-21T04:59:18;2.28;;;1.75;;
71558;SDS011;59382;43.852;25.952;2023-11-21T05:01:43;3.85;;;1.90;;
71558;SDS011;59382;43.852;25.952;2023-11-21T05:04:09;4.22;;;1.92;;
71558;SDS011;59382;43.852;25.952;2023-11-21T05:06:34;3.90;;;1.77;;
71558;SDS011;59382;43.852;25.952;2023-11-21T05:09:00;6.25;;;1.77;;
71558;SDS011;59382;43.852;25.952;2023-11-21T05:11:26;4.80;;;2.58;;
71558;SDS011;59382;43.852;25.952;2023-11-21T05:13:52;4.95;;;2.03;;
71558;SDS011;59382;43.852;25.952;2023-11-21T05:16:18;3.70;;;2.22;;
71558;SDS011;59382;43.852;25.952;2023-11-21T05:18:44;2.70;;;2.03;;
71558;SDS011;59382;43.852;25.952;2023-11-21T05:21:10;2.35;;;1.80;;
71558;SDS011;59382;43.852;25.952;2023-11-21T05:23:36;4.25;;;2.00;;
71558;SDS011;59382;43.852;25.952;2023-11-21T05:26:02;3.28;;;2.22;;
71558;SDS011;59382;43.852;25.952;2023-11-21T05:28:28;7.07;;;1.95;;
71558;SDS011;59382;43.852;25.952;2023-11-21T05:30:54;5.50;;;2.58;;
71558;SDS011;59382;43.852;25.952;2023-11-21T05:33:20;9.23;;;3.40;;
71558;SDS011;59382;43.852;25.952;2023-11-21T05:35:46;6.18;;;3.67;;
71558;SDS011;59382;43.852;25.952;2023-11-21T05:38:14;18.05;;;4.88;;
71558;SDS011;59382;43.852;25.952;2023-11-21T05:40:39;6.10;;;4.35;;
71558;SDS011;59382;43.852;25.952;2023-11-21T05:43:05;9.25;;;5.20;;
71558;SDS011;59382;43.852;25.952;2023-11-21T05:45:31;7.43;;;5.07;;
71558;SDS011;59382;43.852;25.952;2023-11-21T05:47:58;9.32;;;4.88;;
71558;SDS011;59382;43.852;25.952;2023-11-21T05:50:24;7.55;;;4.40;;
71558;SDS011;59382;43.852;25.952;2023-11-21T05:52:49;14.73;;;4.07;;
71558;SDS011;59382;43.852;25.952;2023-11-21T05:55:15;4.75;;;3.28;;
71558;SDS011;59382;43.852;25.952;2023-11-21T05:57:41;10.60;;;2.50;;
71558;SDS011;59382;43.852;25.952;2023-11-21T06:00:09;3.17;;;1.95;;
71558;SDS011;59382;43.852;25.952;2023-11-21T06:02:46;2.75;;;2.15;;
71558;SDS011;59382;43.852;25.952;2023-11-21T06:05:12;7.78;;;3.88;;
71558;SDS011;59382;43.852;25.952;2023-11-21T06:07:38;5.93;;;2.72;;
71558;SDS011;59382;43.852;25.952;2023-11-21T06:10:05;3.25;;;2.00;;
71558;SDS011;59382;43.852;25.952;2023-11-21T06:12:35;3.40;;;2.00;;
71558;SDS011;59382;43.852;25.952;2023-11-21T06:15:04;2.40;;;1.73;;
71558;SDS011;59382;43.852;25.952;2023-11-21T06:17:33;3.92;;;2.28;;
71558;SDS011;59382;43.852;25.952;2023-11-21T06:20:01;4.88;;;2.35;;
71558;SDS011;59382;43.852;25.952;2023-11-21T06:22:34;4.95;;;2.17;;
71558;SDS011;59382;43.852;25.952;2023-11-21T06:25:03;2.63;;;1.63;;
71558;SDS011;59382;43.852;25.952;2023-11-21T06:27:31;3.40;;;2.28;;
71558;SDS011;59382;43.852;25.952;2023-11-21T06:29:57;4.55;;;2.70;;
71558;SDS011;59382;43.852;25.952;2023-11-21T06:32:23;2.72;;;2.13;;
71558;SDS011;59382;43.852;25.952;2023-11-21T06:34:48;5.90;;;2.88;;
71558;SDS011;59382;43.852;25.952;2023-11-21T06:37:14;5.00;;;2.33;;
71558;SDS011;59382;43.852;25.952;2023-11-21T06:39:40;6.95;;;2.47;;
71558;SDS011;59382;43.852;25.952;2023-11-21T06:42:06;9.43;;;3.33;;
71558;SDS011;59382;43.852;25.952;2023-11-21T06:44:32;4.55;;;2.40;;
71558;SDS011;59382;43.852;25.952;2023-11-21T06:47:00;6.35;;;2.60;;
71558;SDS011;59382;43.852;25.952;2023-11-21T06:49:25;5.43;;;2.05;;
71558;SDS011;59382;43.852;25.952;2023-11-21T06:51:51;7.70;;;2.40;;
71558;SDS011;59382;43.852;25.952;2023-11-21T06:54:18;6.40;;;2.30;;
71558;SDS011;59382;43.852;25.952;2023-11-21T06:56:43;5.25;;;2.75;;
71558;SDS011;59382;43.852;25.952;2023-11-21T06:59:09;8.32;;;3.55;;
71558;SDS011;59382;43.852;25.952;2023-11-21T07:01:35;13.20;;;3.80;;
71558;SDS011;59382;43.852;25.952;2023-11-21T07:04:04;4.78;;;3.60;;
71558;SDS011;59382;43.852;25.952;2023-11-21T07:06:31;6.57;;;3.65;;
71558;SDS011;59382;43.852;25.952;2023-11-21T07:08:57;7.18;;;3.85;;
71558;SDS011;59382;43.852;25.952;2023-11-21T07:11:22;5.38;;;3.47;;
71558;SDS011;59382;43.852;25.952;2023-11-21T07:13:47;6.32;;;3.55;;
71558;SDS011;59382;43.852;25.952;2023-11-21T07:16:13;7.45;;;2.78;;
71558;SDS011;59382;43.852;25.952;2023-11-21T07:18:40;12.75;;;4.30;;
71558;SDS011;59382;43.852;25.952;2023-11-21T07:21:07;6.15;;;3.90;;
71558;SDS011;59382;43.852;25.952;2023-11-21T07:23:33;3.63;;;2.35;;
71558;SDS011;59382;43.852;25.952;2023-11-21T07:25:59;4.75;;;3.28;;
71558;SDS011;59382;43.852;25.952;2023-11-21T07:28:24;3.45;;;2.67;;
71558;SDS011;59382;43.852;25.952;2023-11-21T07:30:51;7.07;;;3.33;;
71558;SDS011;59382;43.852;25.952;2023-11-21T07:33:19;8.32;;;3.28;;
71558;SDS011;59382;43.852;25.952;2023-11-21T07:35:45;8.07;;;2.58;;
71558;SDS011;59382;43.852;25.952;2023-11-21T07:38:10;5.55;;;2.78;;
71558;SDS011;59382;43.852;25.952;2023-11-21T07:40:36;7.18;;;2.97;;
71558;SDS011;59382;43.852;25.952;2023-11-21T07:43:01;8.65;;;3.20;;
71558;SDS011;59382;43.852;25.952;2023-11-21T07:45:27;8.52;;;4.53;;
71558;SDS011;59382;43.852;25.952;2023-11-21T07:47:53;11.30;;;4.25;;
71558;SDS011;59382;43.852;25.952;2023-11-21T07:50:20;11.57;;;3.75;;
71558;SDS011;59382;43.852;25.952;2023-11-21T07:52:48;4.30;;;2.58;;
71558;SDS011;59382;43.852;25.952;2023-11-21T07:55:14;3.88;;;2.67;;
71558;SDS011;59382;43.852;25.952;2023-11-21T07:57:40;3.83;;;2.05;;
71558;SDS011;59382;43.852;25.952;2023-11-21T08:00:06;2.38;;;2.13;;
71558;SDS011;59382;43.852;25.952;2023-11-21T08:02:34;3.35;;;1.95;;
71558;SDS011;59382;43.852;25.952;2023-11-21T08:05:00;4.20;;;2.00;;
71558;SDS011;59382;43.852;25.952;2023-11-21T08:07:27;2.17;;;1.98;;
71558;SDS011;59382;43.852;25.952;2023-11-21T08:09:52;2.65;;;1.88;;
71558;SDS011;59382;43.852;25.952;2023-11-21T08:12:18;2.88;;;2.15;;
71558;SDS011;59382;43.852;25.952;2023-11-21T08:14:45;5.00;;;2.45;;
71558;SDS011;59382;43.852;25.952;2023-11-21T08:17:11;4.60;;;2.28;;
71558;SDS011;59382;43.852;25.952;2023-11-21T08:19:37;7.85;;;2.67;;
71558;SDS011;59382;43.852;25.952;2023-11-21T08:22:03;4.53;;;2.63;;
71558;SDS011;59382;43.852;25.952;2023-11-21T08:24:29;9.07;;;2.78;;
71558;SDS011;59382;43.852;25.952;2023-11-21T08:26:55;20.42;;;10.50;;
71558;SDS011;59382;43.852;25.952;2023-11-21T08:29:21;5.68;;;3.88;;
71558;SDS011;59382;43.852;25.952;2023-11-21T08:31:48;7.13;;;2.90;;
71558;SDS011;59382;43.852;25.952;2023-11-21T08:34:15;2.65;;;2.28;;
71558;SDS011;59382;43.852;25.952;2023-11-21T08:36:41;3.03;;;2.05;;
71558;SDS011;59382;43.852;25.952;2023-11-21T08:39:10;2.92;;;2.28;;
71558;SDS011;59382;43.852;25.952;2023-11-21T08:41:36;3.78;;;2.60;;
71558;SDS011;59382;43.852;25.952;2023-11-21T08:44:02;7.43;;;3.08;;
71558;SDS011;59382;43.852;25.952;2023-11-21T08:46:32;6.55;;;2.60;;
71558;SDS011;59382;43.852;25.952;2023-11-21T08:49:00;3.58;;;2.65;;
71558;SDS011;59382;43.852;25.952;2023-11-21T08:51:26;4.07;;;3.10;;
71558;SDS011;59382;43.852;25.952;2023-11-21T08:53:52;5.07;;;3.08;;
71558;SDS011;59382;43.852;25.952;2023-11-21T08:56:18;7.70;;;3.13;;
71558;SDS011;59382;43.852;25.952;2023-11-21T08:58:45;9.13;;;2.72;;
71558;SDS011;59382;43.852;25.952;2023-11-21T09:01:12;4.05;;;2.78;;
71558;SDS011;59382;43.852;25.952;2023-11-21T09:03:38;4.13;;;2.33;;
71558;SDS011;59382;43.852;25.952;2023-11-21T09:06:03;6.20;;;2.28;;
71558;SDS011;59382;43.852;25.952;2023-11-21T09:08:29;6.60;;;2.88;;
71558;SDS011;59382;43.852;25.952;2023-11-21T09:10:55;3.75;;;2.70;;
71558;SDS011;59382;43.852;25.952;2023-11-21T09:13:21;3.35;;;2.10;;
71558;SDS011;59382;43.852;25.952;2023-11-21T09:15:46;9.18;;;2.60;;
71558;SDS011;59382;43.852;25.952;2023-11-21T09:18:15;2.70;;;1.92;;
71558;SDS011;59382;43.852;25.952;2023-11-21T09:20:41;5.20;;;2.15;;
71558;SDS011;59382;43.852;25.952;2023-11-21T09:23:09;3.25;;;2.20;;
71558;SDS011;59382;43.852;25.952;2023-11-21T09:25:34;3.75;;;2.33;;
71558;SDS011;59382;43.852;25.952;2023-11-21T09:28:01;4.60;;;2.97;;
71558;SDS011;59382;43.852;25.952;2023-11-21T09:30:26;4.47;;;2.35;;
71558;SDS011;59382;43.852;25.952;2023-11-21T09:32:52;8.63;;;2.58;;
71558;SDS011;59382;43.852;25.952;2023-11-21T09:35:17;3.60;;;2.00;;
71558;SDS011;59382;43.852;25.952;2023-11-21T09:37:43;3.75;;;2.00;;
71558;SDS011;59382;43.852;25.952;2023-11-21T09:40:11;2.60;;;1.65;;
71558;SDS011;59382;43.852;25.952;2023-11-21T09:42:57;2.88;;;1.52;;
71558;SDS011;59382;43.852;25.952;2023-11-21T09:45:27;2.53;;;1.27;;
71558;SDS011;59382;43.852;25.952;2023-11-21T09:47:54;2.38;;;1.50;;
71558;SDS011;59382;43.852;25.952;2023-11-21T09:50:21;5.18;;;1.70;;
71558;SDS011;59382;43.852;25.952;2023-11-21T09:55:43;6.07;;;0.95;;
71558;SDS011;59382;43.852;25.952;2023-11-21T09:58:10;2.72;;;0.90;;
71558;SDS011;59382;43.852;25.952;2023-11-21T10:00:42;4.65;;;1.00;;
71558;SDS011;59382;43.852;25.952;2023-11-21T10:03:09;2.38;;;1.23;;
71558;SDS011;59382;43.852;25.952;2023-11-21T10:05:36;1.92;;;1.27;;
71558;SDS011;59382;43.852;25.952;2023-11-21T10:08:04;1.83;;;1.13;;
71558;SDS011;59382;43.852;25.952;2023-11-21T10:10:37;1.60;;;1.42;;
71558;SDS011;59382;43.852;25.952;2023-11-21T10:13:11;1.80;;;1.23;;
71558;SDS011;59382;43.852;25.952;2023-11-21T10:15:43;3.35;;;1.95;;
71558;SDS011;59382;43.852;25.952;2023-11-21T10:18:15;5.65;;;1.77;;
71558;SDS011;59382;43.852;25.952;2023-11-21T10:20:41;2.75;;;1.67;;
71558;SDS011;59382;43.852;25.952;2023-11-21T10:23:08;1.00;;;0.88;;
71558;SDS011;59382;43.852;25.952;2023-11-21T10:25:37;4.40;;;1.77;;
71558;SDS011;59382;43.852;25.952;2023-11-21T10:28:03;1.33;;;1.05;;
71558;SDS011;59382;43.852;25.952;2023-11-21T10:30:33;2.20;;;1.40;;
71558;SDS011;59382;43.852;25.952;2023-11-21T10:33:06;0.88;;;0.80;;
71558;SDS011;59382;43.852;25.952;2023-11-21T10:38:12;8.15;;;1.50;;
71558;SDS011;59382;43.852;25.952;2023-11-21T10:40:40;3.97;;;1.48;;
71558;SDS011;59382;43.852;25.952;2023-11-21T10:43:08;1.88;;;1.30;;
71558;SDS011;59382;43.852;25.952;2023-11-21T10:45:37;2.05;;;1.27;;
71558;SDS011;59382;43.852;25.952;2023-11-21T10:48:06;1.17;;;0.90;;
71558;SDS011;59382;43.852;25.952;2023-11-21T10:50:37;1.70;;;0.82;;
71558;SDS011;59382;43.852;25.952;2023-11-21T10:53:03;1.00;;;1.00;;
71558;SDS011;59382;43.852;25.952;2023-11-21T10:55:30;3.25;;;1.85;;
71558;SDS011;59382;43.852;25.952;2023-11-21T10:58:00;1.67;;;1.58;;
71558;SDS011;59382;43.852;25.952;2023-11-21T11:00:28;6.57;;;1.60;;
71558;SDS011;59382;43.852;25.952;2023-11-21T11:02:55;4.35;;;1.30;;
71558;SDS011;59382;43.852;25.952;2023-11-21T11:05:25;1.63;;;1.20;;
71558;SDS011;59382;43.852;25.952;2023-11-21T11:08:02;4.43;;;2.15;;
71558;SDS011;59382;43.852;25.952;2023-11-21T11:10:30;2.42;;;1.88;;
71558;SDS011;59382;43.852;25.952;2023-11-21T11:12:58;7.78;;;2.20;;
71558;SDS011;59382;43.852;25.952;2023-11-21T11:15:25;2.15;;;1.77;;
71558;SDS011;59382;43.852;25.952;2023-11-21T11:17:53;2.67;;;1.45;;
71558;SDS011;59382;43.852;25.952;2023-11-21T11:20:23;2.78;;;1.40;;
71558;SDS011;59382;43.852;25.952;2023-11-21T11:28:38;3.80;;;1.20;;
71558;SDS011;59382;43.852;25.952;2023-11-21T11:39:34;2.40;;;1.27;;
71558;SDS011;59382;43.852;25.952;2023-11-21T11:42:03;2.63;;;0.75;;
71558;SDS011;59382;43.852;25.952;2023-11-21T11:47:19;1.55;;;0.88;;
71558;SDS011;59382;43.852;25.952;2023-11-21T11:50:07;2.30;;;1.05;;
71558;SDS011;59382;43.852;25.952;2023-11-21T11:52:45;1.67;;;0.75;;
71558;SDS011;59382;43.852;25.952;2023-11-21T11:55:13;2.47;;;1.13;;
71558;SDS011;59382;43.852;25.952;2023-11-21T11:57:43;1.38;;;1.02;;
71558;SDS011;59382;43.852;25.952;2023-11-21T12:02:41;1.70;;;1.13;;
71558;SDS011;59382;43.852;25.952;2023-11-21T12:05:12;2.17;;;0.80;;
71558;SDS011;59382;43.852;25.952;2023-11-21T12:07:46;2.25;;;1.00;;
71558;SDS011;59382;43.852;25.952;2023-11-21T12:10:17;1.45;;;0.65;;
71558;SDS011;59382;43.852;25.952;2023-11-21T12:12:45;1.52;;;1.00;;
71558;SDS011;59382;43.852;25.952;2023-11-21T12:15:12;1.23;;;0.80;;
71558;SDS011;59382;43.852;25.952;2023-11-21T12:17:41;1.48;;;0.88;;
71558;SDS011;59382;43.852;25.952;2023-11-21T12:20:10;1.70;;;0.70;;
71558;SDS011;59382;43.852;25.952;2023-11-21T12:22:48;1.20;;;0.80;;
71558;SDS011;59382;43.852;25.952;2023-11-21T12:25:24;1.20;;;0.68;;
71558;SDS011;59382;43.852;25.952;2023-11-21T12:27:54;1.45;;;0.88;;
71558;SDS011;59382;43.852;25.952;2023-11-21T12:30:27;4.10;;;0.80;;
71558;SDS011;59382;43.852;25.952;2023-11-21T12:32:55;2.53;;;0.90;;
71558;SDS011;59382;43.852;25.952;2023-11-21T12:35:26;1.90;;;0.95;;
71558;SDS011;59382;43.852;25.952;2023-11-21T12:37:53;2.33;;;0.68;;
71558;SDS011;59382;43.852;25.952;2023-11-21T12:40:20;1.58;;;0.90;;
71558;SDS011;59382;43.852;25.952;2023-11-21T12:42:51;4.38;;;0.98;;
71558;SDS011;59382;43.852;25.952;2023-11-21T12:45:19;1.55;;;0.80;;
71558;SDS011;59382;43.852;25.952;2023-11-21T12:47:50;1.92;;;1.00;;
71558;SDS011;59382;43.852;25.952;2023-11-21T12:50:19;6.53;;;3.20;;
71558;SDS011;59382;43.852;25.952;2023-11-21T12:52:49;4.88;;;2.45;;
71558;SDS011;59382;43.852;25.952;2023-11-21T12:55:17;6.25;;;2.83;;
71558;SDS011;59382;43.852;25.952;2023-11-21T12:57:47;3.58;;;2.40;;
71558;SDS011;59382;43.852;25.952;2023-11-21T13:00:17;3.80;;;2.47;;
71558;SDS011;59382;43.852;25.952;2023-11-21T13:02:57;4.00;;;2.13;;
71558;SDS011;59382;43.852;25.952;2023-11-21T13:07:53;4.57;;;2.10;;
71558;SDS011;59382;43.852;25.952;2023-11-21T13:10:26;5.43;;;2.75;;
71558;SDS011;59382;43.852;25.952;2023-11-21T13:12:55;4.10;;;2.00;;
71558;SDS011;59382;43.852;25.952;2023-11-21T13:15:24;2.05;;;1.38;;
71558;SDS011;59382;43.852;25.952;2023-11-21T13:17:50;1.40;;;1.20;;
71558;SDS011;59382;43.852;25.952;2023-11-21T13:20:16;5.75;;;2.55;;
71558;SDS011;59382;43.852;25.952;2023-11-21T13:23:06;2.05;;;1.38;;
71558;SDS011;59382;43.852;25.952;2023-11-21T13:25:37;3.65;;;1.90;;
71558;SDS011;59382;43.852;25.952;2023-11-21T13:28:04;2.60;;;1.25;;
71558;SDS011;59382;43.852;25.952;2023-11-21T13:30:30;2.35;;;1.30;;
71558;SDS011;59382;43.852;25.952;2023-11-21T13:33:04;3.75;;;1.67;;
71558;SDS011;59382;43.852;25.952;2023-11-21T13:35:35;2.72;;;1.90;;
71558;SDS011;59382;43.852;25.952;2023-11-21T13:38:11;2.55;;;1.48;;
71558;SDS011;59382;43.852;25.952;2023-11-21T13:40:38;6.38;;;2.10;;
71558;SDS011;59382;43.852;25.952;2023-11-21T13:43:11;4.00;;;1.88;;
71558;SDS011;59382;43.852;25.952;2023-11-21T13:45:38;2.60;;;1.33;;
71558;SDS011;59382;43.852;25.952;2023-11-21T13:48:08;6.05;;;2.03;;
71558;SDS011;59382;43.852;25.952;2023-11-21T13:50:38;10.77;;;2.17;;
71558;SDS011;59382;43.852;25.952;2023-11-21T13:53:09;12.88;;;2.88;;
71558;SDS011;59382;43.852;25.952;2023-11-21T13:55:47;5.95;;;2.40;;
71558;SDS011;59382;43.852;25.952;2023-11-21T13:58:14;10.10;;;2.92;;
71558;SDS011;59382;43.852;25.952;2023-11-21T14:00:47;5.00;;;1.85;;
71558;SDS011;59382;43.852;25.952;2023-11-21T14:03:20;11.05;;;3.88;;
71558;SDS011;59382;43.852;25.952;2023-11-21T14:05:48;5.57;;;2.15;;
71558;SDS011;59382;43.852;25.952;2023-11-21T14:08:21;2.60;;;1.98;;
71558;SDS011;59382;43.852;25.952;2023-11-21T14:10:48;3.13;;;2.03;;
71558;SDS011;59382;43.852;25.952;2023-11-21T14:13:20;3.60;;;2.78;;
71558;SDS011;59382;43.852;25.952;2023-11-21T14:15:48;7.35;;;2.35;;
71558;SDS011;59382;43.852;25.952;2023-11-21T14:18:17;8.70;;;3.30;;
71558;SDS011;59382;43.852;25.952;2023-11-21T14:20:51;4.35;;;2.55;;
71558;SDS011;59382;43.852;25.952;2023-11-21T14:23:16;10.10;;;3.00;;
71558;SDS011;59382;43.852;25.952;2023-11-21T14:25:43;11.32;;;3.15;;
71558;SDS011;59382;43.852;25.952;2023-11-21T14:28:11;5.78;;;2.70;;
71558;SDS011;59382;43.852;25.952;2023-11-21T14:30:37;6.15;;;2.83;;
71558;SDS011;59382;43.852;25.952;2023-11-21T14:33:04;7.70;;;2.60;;
71558;SDS011;59382;43.852;25.952;2023-11-21T14:35:31;5.57;;;2.78;;
71558;SDS011;59382;43.852;25.952;2023-11-21T14:37:58;5.25;;;2.67;;
71558;SDS011;59382;43.852;25.952;2023-11-21T14:43:46;6.70;;;2.80;;
71558;SDS011;59382;43.852;25.952;2023-11-21T14:46:14;8.77;;;2.90;;
71558;SDS011;59382;43.852;25.952;2023-11-21T14:48:42;8.52;;;3.15;;
71558;SDS011;59382;43.852;25.952;2023-11-21T14:51:09;6.68;;;3.13;;
71558;SDS011;59382;43.852;25.952;2023-11-21T14:53:42;5.95;;;3.53;;
71558;SDS011;59382;43.852;25.952;2023-11-21T14:56:18;9.85;;;3.67;;
71558;SDS011;59382;43.852;25.952;2023-11-21T14:58:58;10.80;;;4.65;;
71558;SDS011;59382;43.852;25.952;2023-11-21T15:01:41;8.75;;;4.05;;
71558;SDS011;59382;43.852;25.952;2023-11-21T15:04:20;13.82;;;5.40;;
71558;SDS011;59382;43.852;25.952;2023-11-21T15:07:05;17.45;;;8.63;;